Newtown, Virginia
Current Conditions -  °F | °C
As of 11:35 AM on Tuesday 27 Jan 2015 (Local Time) from KXSA Reporting Station
Overcast Overcast  
Wind Chill: 26°   Ceiling: 3900
Heat Index: 32°   Visibility: 10mi
Dew Point: 22°   Wind: 7mph
Humidity: 65%   Direction: 310°NW
Pressure: 29.81"   Gusts: NA
Location:  37.91°N, 77.12°W
Report Text: KXSA 271635Z AUTO 31006KT 10SM SCT019 OVC039 00/M06 A2981 RMK AO2 T00011057
Loading
Personal Weather Stations






























Interactive Weather Map New forecast layout! Learn more

10-Day Weather Forecast

Advertisements
Track Severe Weather on mobile